KBAN

Bridgeport (MCMWT)

Bridgeport, California, USA
METAR KBAN 230752Z AUTO 00000KT 10SM CLR 00/M07 A3012 RMK AO2 SLP164 T00001067 401781061 $
Observed Flight Rules
Oct-23 @ 07:52 UTC (2 hours ago) Visual Flight Rules
Visibility Clouds
10 miles
  • Clear skies
Temperatures Readings
Current 0°C / 32°F
Dewpoint -7°C / 19°F
Humidity 60%
Altimeter 30.12" Hg
Pressure 1016.4 hPa
Elevation 2057
METAR KBAN 230752Z AUTO 00000KT 10SM CLR 00/M07 A3012 RMK AO2 SLP164 T00001067 401781061 $
Observed Flight Rules
Oct-23 @ 07:52 UTC
(2 hours ago)
VFR
Clouds
  • Clear skies
Temperature Dewpoint
0°C / 32°F -7°C / 19°F
Humidity Altimeter Pressure
60% 30.12" Hg 1016.4 hPa